Fantasia — ICJY — position and weather

sailwx.info

Track history (hours):
 
Tides and Currents Weather Stations Pressure Air Temp Water Temp Dewpoint Dewpoint Depression Visibility Wind Speed Wind Dir Waves Ship Positions

Fantasia

Last reported at 2016-May-27 01:18 UTC. Time now 2016-May-29 09:38 UTC.
Position N 37°05' W 006°53'.

Length 183 m; draft 11.3 m.

Type: Tanker. MMSI: 247279600.

Date/timePositionNaut miles runAvg speedWind from/ knotsBaromVisibWave heightAir tempDewpointWater temp
2016-May-27 01:18N 37°05' W 006°53'58713.4
2016-May-25 05:22N 29°18' W 013°58'2613.7
2016-May-25 03:28N 28°57' W 014°17'1313.7
2016-May-25 02:30N 28°47' W 014°26'1513.9
2016-May-25 01:28N 28°36' W 014°36'1213.7
2016-May-25 00:33N 28°26' W 014°45'1313.3
2016-May-24 23:33N 28°14' W 014°52'1413.6
2016-May-24 22:33N 28°01' W 014°57'1413.6
2016-May-24 21:33N 27°49' W 015°03'1313.4
2016-May-24 20:33N 27°36' W 015°08'5 0.3
2016-May-24 04:33N 27°40' W 015°12'1413.8
2016-May-24 03:33N 27°53' W 015°06'1413.7
2016-May-24 02:33N 28°05' W 015°01'1413.7
2016-May-24 01:34N 28°18' W 014°56'1413.8
2016-May-24 00:33N 28°32' W 014°53'1212.4
2016-May-23 23:33N 28°44' W 014°50'2 1.6
2016-May-23 22:32N 28°45' W 014°49'1313.3
2016-May-23 21:33N 28°58' W 014°45'1413.9
2016-May-23 20:33N 29°11' W 014°41'1413.9
2016-May-23 19:33N 29°25' W 014°37'1413.8
2016-May-23 18:34N 29°38' W 014°34'1413.7
2016-May-23 17:34N 29°52' W 014°30'1413.7
2016-May-23 16:34N 30°05' W 014°27'1312.6
2016-May-23 15:33N 30°17' W 014°23'8 8.4
2016-May-23 14:33N 30°25' W 014°21'1413.6
2016-May-23 13:33N 30°38' W 014°17'1413.6
2016-May-23 12:33N 30°52' W 014°13'1413.7
2016-May-23 11:32N 31°05' W 014°09'2913.8
2016-May-23 09:24N 31°34' W 014°02'2613.8
2016-May-23 07:33N 31°59' W 013°55'1413.7
2016-May-23 06:33N 32°12' W 013°51'  
2016-May-19 17:33N 49°40' W 004°05'1212.0
2016-May-19 16:33N 49°44' W 003°48'1212.0
2016-May-19 15:33N 49°49' W 003°31'1312.8
2016-May-19 14:34N 49°55' W 003°13'1414.2
2016-May-19 13:33N 49°60' W 002°53'1715.6
2016-May-19 12:29N 50°05' W 002°28'1516.2
2016-May-19 11:33N 50°09' W 002°05'1615.7
2016-May-19 10:33N 50°13' W 001°42'3912.7
2016-May-19 07:29N 50°23' W 000°42'1111.2
2016-May-19 06:32N 50°26' W 000°26'1212.1
2016-May-19 05:33N 50°29' W 000°08'1313.2
2016-May-19 04:33N 50°33' E 000°12'1814.3
2016-May-19 03:19N 50°38' E 000°38'1614.8
2016-May-19 02:15N 50°46' E 000°60'1014.1
2016-May-19 01:33N 50°52' E 001°12'1212.5
2016-May-19 00:33N 51°01' E 001°26'1110.5
2016-May-18 23:33N 51°08' E 001°38'1111.1
2016-May-18 22:33N 51°17' E 001°49'1212.5
2016-May-18 21:33N 51°28' E 001°59'1413.7
2016-May-18 20:33N 51°38' E 002°14'43613.2
2016-May-17 11:34N 57°40' E 009°12'1513.2
2016-May-17 10:26N 57°44' E 009°39'1213.6
2016-May-17 09:33N 57°47' E 010°00'1413.6
2016-May-17 08:34N 57°48' E 010°26'1211.7
2016-May-17 07:33N 57°47' E 010°47'1211.6
2016-May-17 06:33N 57°39' E 011°03'1413.8
2016-May-17 05:33N 57°29' E 011°22'1313.1
2016-May-17 04:33N 57°18' E 011°33'1312.9
2016-May-17 03:34N 57°06' E 011°41'1312.6
2016-May-17 02:33N 56°54' E 011°48'1212.1
2016-May-17 01:33N 56°42' E 011°51'  
Track history (hours):
 
Tides and Currents Weather Stations Pressure Air Temp Water Temp Dewpoint Dewpoint Depression Visibility Wind Speed Wind Dir Waves Ship Positions

Fantasia

Last reported at 2016-May-27 01:18 UTC. Time now 2016-May-29 09:38 UTC.
Position N 37°05' W 006°53'.

Length 183 m; draft 11.3 m.

Type: Tanker. MMSI: 247279600.

Date/timePositionNaut miles runAvg speedWind from/ knotsBaromVisibWave heightAir tempDewpointWater temp
2016-May-27 01:18N 37°05' W 006°53'58713.4
2016-May-25 05:22N 29°18' W 013°58'2613.7
2016-May-25 03:28N 28°57' W 014°17'1313.7
2016-May-25 02:30N 28°47' W 014°26'1513.9
2016-May-25 01:28N 28°36' W 014°36'1213.7
2016-May-25 00:33N 28°26' W 014°45'1313.3
2016-May-24 23:33N 28°14' W 014°52'1413.6
2016-May-24 22:33N 28°01' W 014°57'1413.6
2016-May-24 21:33N 27°49' W 015°03'1313.4
2016-May-24 20:33N 27°36' W 015°08'5 0.3
2016-May-24 04:33N 27°40' W 015°12'1413.8
2016-May-24 03:33N 27°53' W 015°06'1413.7
2016-May-24 02:33N 28°05' W 015°01'1413.7
2016-May-24 01:34N 28°18' W 014°56'1413.8
2016-May-24 00:33N 28°32' W 014°53'1212.4
2016-May-23 23:33N 28°44' W 014°50'2 1.6
2016-May-23 22:32N 28°45' W 014°49'1313.3
2016-May-23 21:33N 28°58' W 014°45'1413.9
2016-May-23 20:33N 29°11' W 014°41'1413.9
2016-May-23 19:33N 29°25' W 014°37'1413.8
2016-May-23 18:34N 29°38' W 014°34'1413.7
2016-May-23 17:34N 29°52' W 014°30'1413.7
2016-May-23 16:34N 30°05' W 014°27'1312.6
2016-May-23 15:33N 30°17' W 014°23'8 8.4
2016-May-23 14:33N 30°25' W 014°21'1413.6
2016-May-23 13:33N 30°38' W 014°17'1413.6
2016-May-23 12:33N 30°52' W 014°13'1413.7
2016-May-23 11:32N 31°05' W 014°09'2913.8
2016-May-23 09:24N 31°34' W 014°02'2613.8
2016-May-23 07:33N 31°59' W 013°55'1413.7
2016-May-23 06:33N 32°12' W 013°51'  
2016-May-19 17:33N 49°40' W 004°05'1212.0
2016-May-19 16:33N 49°44' W 003°48'1212.0
2016-May-19 15:33N 49°49' W 003°31'1312.8
2016-May-19 14:34N 49°55' W 003°13'1414.2
2016-May-19 13:33N 49°60' W 002°53'1715.6
2016-May-19 12:29N 50°05' W 002°28'1516.2
2016-May-19 11:33N 50°09' W 002°05'1615.7
2016-May-19 10:33N 50°13' W 001°42'3912.7
2016-May-19 07:29N 50°23' W 000°42'1111.2
2016-May-19 06:32N 50°26' W 000°26'1212.1
2016-May-19 05:33N 50°29' W 000°08'1313.2
2016-May-19 04:33N 50°33' E 000°12'1814.3
2016-May-19 03:19N 50°38' E 000°38'1614.8
2016-May-19 02:15N 50°46' E 000°60'1014.1
2016-May-19 01:33N 50°52' E 001°12'1212.5
2016-May-19 00:33N 51°01' E 001°26'1110.5
2016-May-18 23:33N 51°08' E 001°38'1111.1
2016-May-18 22:33N 51°17' E 001°49'1212.5
2016-May-18 21:33N 51°28' E 001°59'1413.7
2016-May-18 20:33N 51°38' E 002°14'43613.2
2016-May-17 11:34N 57°40' E 009°12'1513.2
2016-May-17 10:26N 57°44' E 009°39'1213.6
2016-May-17 09:33N 57°47' E 010°00'1413.6
2016-May-17 08:34N 57°48' E 010°26'1211.7
2016-May-17 07:33N 57°47' E 010°47'1211.6
2016-May-17 06:33N 57°39' E 011°03'1413.8
2016-May-17 05:33N 57°29' E 011°22'1313.1
2016-May-17 04:33N 57°18' E 011°33'1312.9
2016-May-17 03:34N 57°06' E 011°41'1312.6
2016-May-17 02:33N 56°54' E 011°48'1212.1
2016-May-17 01:33N 56°42' E 011°51'  

Dump ship's entire track history